createdAt,value
2022-08-20T00:01:05.903Z,4.18
2022-08-20T00:03:38.809Z,3.78
2022-08-20T00:06:12.569Z,3.90
2022-08-20T00:08:39.867Z,2.72
2022-08-20T00:11:08.648Z,3.42
2022-08-20T00:13:47.379Z,3.58
2022-08-20T00:16:16.032Z,3.22
2022-08-20T00:18:42.892Z,3.05
2022-08-20T00:21:14.358Z,2.88
2022-08-20T00:23:48.401Z,3.35
2022-08-20T00:26:16.753Z,2.50
2022-08-20T00:28:43.403Z,3.53
2022-08-20T00:31:12.348Z,2.97
2022-08-20T00:33:39.078Z,3.75
2022-08-20T00:36:09.409Z,3.22
2022-08-20T00:38:38.859Z,3.17
2022-08-20T00:41:07.162Z,3.22
2022-08-20T00:43:36.251Z,3.58
2022-08-20T00:46:08.081Z,3.00
2022-08-20T00:48:37.903Z,3.00
2022-08-20T00:51:09.785Z,3.33
2022-08-20T00:53:38.128Z,3.65
2022-08-20T00:56:07.119Z,3.13
2022-08-20T00:58:34.149Z,4.07
2022-08-20T01:01:00.824Z,2.72
2022-08-20T01:03:27.578Z,2.85
2022-08-20T01:05:54.237Z,2.85
2022-08-20T01:08:24.084Z,3.83
2022-08-20T01:10:53.703Z,3.28
2022-08-20T01:13:23.751Z,3.08
2022-08-20T01:18:21.497Z,3.58
2022-08-20T01:21:02.416Z,3.42
2022-08-20T01:23:47.737Z,3.10
2022-08-20T01:26:23.125Z,3.83
2022-08-20T01:28:54.142Z,3.60
2022-08-20T01:31:25.414Z,4.15
2022-08-20T01:33:54.177Z,3.58
2022-08-20T01:36:24.188Z,3.13
2022-08-20T01:41:43.828Z,3.53
2022-08-20T01:44:14.318Z,3.53
2022-08-20T01:46:47.082Z,3.22
2022-08-20T01:49:24.633Z,3.85
2022-08-20T01:51:53.971Z,3.88
2022-08-20T01:54:21.678Z,3.67
2022-08-20T01:57:16.917Z,3.80
2022-08-20T01:59:43.678Z,3.55
2022-08-20T02:02:12.706Z,3.75
2022-08-20T02:04:40.346Z,4.90
2022-08-20T02:07:12.367Z,4.05
2022-08-20T02:09:39.896Z,3.70
2022-08-20T02:12:08.880Z,4.60
2022-08-20T02:14:36.996Z,3.40
2022-08-20T02:17:03.924Z,3.95
2022-08-20T02:19:43.424Z,2.90
2022-08-20T02:22:38.440Z,2.95
2022-08-20T02:25:08.790Z,4.15
2022-08-20T02:27:37.004Z,3.67
2022-08-20T02:30:10.776Z,4.30
2022-08-20T02:32:45.929Z,2.60
2022-08-20T02:35:13.614Z,3.38
2022-08-20T02:37:43.104Z,4.25
2022-08-20T02:40:14.452Z,3.78
2022-08-20T02:42:43.186Z,3.70
2022-08-20T02:47:46.486Z,4.10
2022-08-20T02:50:16.868Z,3.65
2022-08-20T02:52:52.155Z,4.65
2022-08-20T02:55:28.077Z,3.67
2022-08-20T02:58:00.173Z,3.85
2022-08-20T03:00:38.125Z,4.28
2022-08-20T03:03:10.394Z,4.05
2022-08-20T03:05:39.179Z,4.75
2022-08-20T03:08:08.428Z,4.25
2022-08-20T03:10:37.884Z,4.30
2022-08-20T03:13:06.046Z,3.15
2022-08-20T03:15:33.816Z,3.53
2022-08-20T03:18:01.017Z,3.92
2022-08-20T03:20:29.120Z,4.45
2022-08-20T03:22:56.211Z,3.83
2022-08-20T03:25:23.032Z,3.25
2022-08-20T03:27:54.266Z,3.50
2022-08-20T03:30:22.508Z,3.65
2022-08-20T03:32:49.057Z,3.65
2022-08-20T03:35:17.581Z,3.63
2022-08-20T03:37:48.394Z,3.85
2022-08-20T03:40:28.781Z,3.95
2022-08-20T03:42:55.598Z,3.80
2022-08-20T03:45:23.600Z,3.13
2022-08-20T03:47:52.550Z,4.10
2022-08-20T03:50:24.320Z,3.75
2022-08-20T03:52:52.706Z,3.50
2022-08-20T03:55:20.682Z,3.20
2022-08-20T03:57:50.276Z,3.92
2022-08-20T04:00:22.067Z,3.55
2022-08-20T04:02:49.017Z,3.63
2022-08-20T04:05:15.628Z,3.65
2022-08-20T04:07:42.819Z,4.15
2022-08-20T04:10:11.263Z,2.78
2022-08-20T04:12:48.647Z,3.88
2022-08-20T04:15:20.624Z,3.55
2022-08-20T04:17:50.237Z,3.72
2022-08-20T04:20:24.119Z,3.93
2022-08-20T04:22:59.289Z,3.72
2022-08-20T04:25:29.526Z,3.67
2022-08-20T04:27:57.061Z,3.72
2022-08-20T04:30:23.825Z,3.88
2022-08-20T04:32:50.356Z,3.75
2022-08-20T04:35:18.248Z,3.83
2022-08-20T04:37:46.727Z,3.08
2022-08-20T04:40:36.346Z,4.38
2022-08-20T04:43:05.036Z,3.85
2022-08-20T04:45:32.476Z,3.53
2022-08-20T04:48:05.453Z,3.67
2022-08-20T04:50:36.866Z,3.75
2022-08-20T04:53:06.247Z,3.58
2022-08-20T04:55:33.981Z,4.07
2022-08-20T04:58:12.332Z,4.32
2022-08-20T05:00:39.457Z,3.97
2022-08-20T05:03:08.971Z,3.78
2022-08-20T05:05:35.712Z,4.15
2022-08-20T05:08:02.653Z,4.50
2022-08-20T05:10:30.161Z,4.32
2022-08-20T05:12:57.414Z,4.10
2022-08-20T05:15:26.034Z,3.60
2022-08-20T05:18:02.547Z,4.35
2022-08-20T05:20:31.382Z,3.95
2022-08-20T05:22:59.618Z,4.55
2022-08-20T05:25:29.416Z,4.40
2022-08-20T05:28:00.709Z,4.90
2022-08-20T05:30:34.287Z,4.85
2022-08-20T05:33:05.801Z,5.15
2022-08-20T05:35:34.818Z,4.30
2022-08-20T05:38:02.075Z,4.63
2022-08-20T05:40:28.979Z,4.75
2022-08-20T05:42:55.522Z,4.70
2022-08-20T05:45:22.247Z,4.72
2022-08-20T05:47:54.261Z,5.13
2022-08-20T05:50:23.966Z,4.85
2022-08-20T05:52:50.892Z,4.72
2022-08-20T05:55:17.453Z,4.72
2022-08-20T05:57:45.728Z,4.68
2022-08-20T06:00:14.303Z,4.97
2022-08-20T06:03:00.888Z,5.05
2022-08-20T06:05:27.591Z,4.72
2022-08-20T06:07:54.831Z,4.80
2022-08-20T06:10:26.416Z,4.70
2022-08-20T06:12:53.296Z,4.95
2022-08-20T06:15:21.091Z,5.13
2022-08-20T06:17:58.076Z,4.50
2022-08-20T06:20:26.058Z,5.22
2022-08-20T06:22:52.634Z,5.68
2022-08-20T06:25:19.559Z,5.22
2022-08-20T06:27:46.147Z,4.93
2022-08-20T06:30:15.049Z,4.70
2022-08-20T06:32:41.866Z,4.50
2022-08-20T06:35:09.862Z,5.00
2022-08-20T06:37:39.275Z,6.63
2022-08-20T06:40:16.706Z,5.60
2022-08-20T06:42:48.228Z,4.95
2022-08-20T06:45:18.768Z,5.50
2022-08-20T06:47:47.366Z,5.78
2022-08-20T06:50:18.035Z,5.15
2022-08-20T06:52:52.881Z,5.45
2022-08-20T06:55:20.792Z,6.03
2022-08-20T06:57:48.415Z,5.18
2022-08-20T07:00:18.714Z,5.93
2022-08-20T07:02:48.024Z,6.10
2022-08-20T07:05:15.472Z,6.35
2022-08-20T07:07:45.787Z,5.63
2022-08-20T07:10:14.214Z,5.68
2022-08-20T07:12:40.938Z,5.85
2022-08-20T07:15:10.967Z,6.63
2022-08-20T07:17:38.279Z,5.75
2022-08-20T07:20:07.748Z,6.18
2022-08-20T07:22:37.658Z,6.82
2022-08-20T07:27:32.464Z,6.05
2022-08-20T07:30:17.929Z,6.97
2022-08-20T07:32:47.666Z,6.93
2022-08-20T07:35:17.351Z,6.60
2022-08-20T07:37:48.484Z,6.90
2022-08-20T07:40:22.525Z,6.55
2022-08-20T07:42:53.101Z,6.88
2022-08-20T07:45:20.694Z,6.90
2022-08-20T07:47:48.015Z,7.15
2022-08-20T07:50:18.005Z,5.55
2022-08-20T07:52:45.610Z,6.13
2022-08-20T07:55:15.515Z,6.78
2022-08-20T07:57:43.834Z,7.78
2022-08-20T08:00:12.498Z,7.60
2022-08-20T08:02:39.806Z,7.47
2022-08-20T08:05:07.625Z,8.50
2022-08-20T08:07:34.383Z,7.68
2022-08-20T08:10:07.426Z,9.52
2022-08-20T08:12:38.419Z,9.07
2022-08-20T08:15:10.047Z,8.68
2022-08-20T08:17:37.647Z,8.90
2022-08-20T08:20:06.427Z,9.57
2022-08-20T08:22:33.155Z,9.25
2022-08-20T08:25:02.356Z,9.70
2022-08-20T08:27:32.600Z,9.25
2022-08-20T08:30:03.502Z,9.98
2022-08-20T08:32:32.016Z,9.65
2022-08-20T08:35:02.919Z,8.55
2022-08-20T08:37:30.961Z,9.88
2022-08-20T08:39:57.683Z,10.35
2022-08-20T08:42:44.026Z,10.23
2022-08-20T08:45:15.982Z,10.13
2022-08-20T08:47:44.851Z,10.90
2022-08-20T08:50:50.092Z,10.18
2022-08-20T08:53:24.979Z,9.43
2022-08-20T08:55:51.510Z,9.98
2022-08-20T08:58:18.089Z,11.27
2022-08-20T09:00:56.000Z,11.30
2022-08-20T09:03:29.789Z,10.75
2022-08-20T09:05:59.829Z,10.20
2022-08-20T09:08:39.054Z,10.02
2022-08-20T09:11:08.630Z,11.32
2022-08-20T09:13:35.361Z,10.00
2022-08-20T09:16:01.971Z,9.45
2022-08-20T09:18:28.550Z,10.50
2022-08-20T09:20:55.806Z,9.85
2022-08-20T09:23:22.346Z,11.30
2022-08-20T09:25:48.923Z,10.07
2022-08-20T09:28:15.520Z,10.35
2022-08-20T09:30:42.928Z,10.45
2022-08-20T09:33:11.656Z,10.45
2022-08-20T09:35:40.153Z,9.10
2022-08-20T09:38:07.718Z,9.75
2022-08-20T09:40:34.780Z,11.35
2022-08-20T09:43:01.442Z,10.13
2022-08-20T09:45:27.978Z,10.32
2022-08-20T09:48:09.511Z,10.95
2022-08-20T09:50:40.915Z,9.52
2022-08-20T09:53:07.666Z,10.23
2022-08-20T09:55:38.317Z,10.20
2022-08-20T09:58:11.433Z,10.48
2022-08-20T10:00:38.016Z,10.25
2022-08-20T10:03:04.520Z,9.75
2022-08-20T10:05:31.677Z,9.68
2022-08-20T10:07:58.483Z,9.63
2022-08-20T10:10:25.760Z,8.80
2022-08-20T10:12:54.933Z,10.13
2022-08-20T10:15:21.832Z,9.25
2022-08-20T10:17:48.419Z,8.73
2022-08-20T10:20:15.770Z,8.75
2022-08-20T10:22:42.306Z,9.65
2022-08-20T10:25:09.568Z,9.65
2022-08-20T10:27:36.203Z,8.82
2022-08-20T10:30:05.312Z,8.20
2022-08-20T10:32:32.107Z,8.55
2022-08-20T10:34:58.702Z,7.70
2022-08-20T10:37:26.370Z,8.48
2022-08-20T10:39:53.944Z,8.20
2022-08-20T10:42:20.614Z,7.80
2022-08-20T10:44:47.211Z,6.78
2022-08-20T10:47:18.625Z,7.90
2022-08-20T10:49:45.281Z,7.97
2022-08-20T10:52:11.891Z,6.97
2022-08-20T10:54:42.130Z,8.27
2022-08-20T10:57:30.098Z,6.97
2022-08-20T10:59:58.458Z,6.82
2022-08-20T11:02:26.624Z,6.43
2022-08-20T11:04:53.593Z,6.38
2022-08-20T11:07:54.749Z,6.85
2022-08-20T11:10:13.946Z,6.00
2022-08-20T11:12:41.033Z,5.22
2022-08-20T11:15:10.743Z,5.40
2022-08-20T11:17:40.881Z,5.55
2022-08-20T11:20:08.526Z,5.57
2022-08-20T11:22:35.391Z,5.90
2022-08-20T11:25:02.554Z,5.30
2022-08-20T11:27:33.595Z,5.40
2022-08-20T11:30:00.215Z,4.88
2022-08-20T11:32:27.178Z,5.35
2022-08-20T11:34:53.814Z,6.22
2022-08-20T11:37:24.131Z,6.00
2022-08-20T11:39:51.427Z,6.25
2022-08-20T11:42:18.186Z,5.78
2022-08-20T11:44:45.036Z,5.60
2022-08-20T11:47:23.522Z,6.00
2022-08-20T11:50:01.426Z,5.28
2022-08-20T11:52:29.347Z,6.15
2022-08-20T11:54:57.468Z,5.82
2022-08-20T11:57:32.715Z,5.50
2022-08-20T12:00:01.397Z,5.90
2022-08-20T12:02:29.780Z,6.00
2022-08-20T12:04:56.883Z,5.05
2022-08-20T12:07:25.619Z,5.50
2022-08-20T12:09:52.541Z,6.05
2022-08-20T12:12:22.264Z,5.88
2022-08-20T12:17:23.525Z,5.30
2022-08-20T12:19:52.088Z,5.75
2022-08-20T12:22:24.909Z,5.25
2022-08-20T12:24:53.576Z,4.65
2022-08-20T12:27:29.213Z,4.57
2022-08-20T12:29:58.268Z,5.20
2022-08-20T12:32:28.603Z,4.53
2022-08-20T12:34:55.692Z,4.80
2022-08-20T12:37:25.466Z,4.72
2022-08-20T12:42:20.654Z,5.63
2022-08-20T12:44:47.719Z,5.47
2022-08-20T12:47:21.634Z,5.25
2022-08-20T12:49:51.435Z,4.88
2022-08-20T12:52:20.079Z,5.10
2022-08-20T12:54:47.251Z,5.60
2022-08-20T12:57:28.775Z,4.38
2022-08-20T13:00:00.904Z,4.38
2022-08-20T13:02:30.547Z,5.50
2022-08-20T13:05:00.122Z,5.32
2022-08-20T13:07:29.264Z,4.55
2022-08-20T13:09:55.835Z,5.22
2022-08-20T13:12:22.432Z,5.03
2022-08-20T13:14:49.024Z,5.25
2022-08-20T13:17:17.993Z,5.38
2022-08-20T13:19:45.604Z,5.13
2022-08-20T13:22:13.731Z,6.22
2022-08-20T13:24:40.703Z,5.43
2022-08-20T13:27:13.658Z,5.57
2022-08-20T13:29:49.917Z,6.05
2022-08-20T13:32:17.293Z,5.18
2022-08-20T13:34:45.398Z,5.78
2022-08-20T13:37:15.787Z,6.05
2022-08-20T13:39:43.270Z,6.28
2022-08-20T13:42:11.521Z,6.10
2022-08-20T13:44:39.358Z,5.82
2022-08-20T13:47:19.172Z,5.93
2022-08-20T13:52:16.321Z,5.78
2022-08-20T13:54:43.692Z,6.18
2022-08-20T13:57:13.611Z,6.50
2022-08-20T13:59:43.869Z,6.03
2022-08-20T14:02:11.700Z,5.53
2022-08-20T14:04:39.070Z,5.53
2022-08-20T14:07:31.625Z,5.65
2022-08-20T14:10:02.290Z,5.95
2022-08-20T14:14:58.200Z,5.10
2022-08-20T14:17:30.113Z,5.90
2022-08-20T14:20:07.436Z,5.60
2022-08-20T14:22:36.773Z,5.03
2022-08-20T14:25:05.111Z,5.00
2022-08-20T14:27:33.642Z,5.95
2022-08-20T14:30:01.738Z,6.05
2022-08-20T14:32:28.699Z,5.40
2022-08-20T14:34:59.045Z,5.13
2022-08-20T14:37:28.540Z,5.00
2022-08-20T14:39:57.160Z,5.18
2022-08-20T14:42:26.477Z,4.55
2022-08-20T14:44:53.851Z,5.07
2022-08-20T14:47:34.840Z,4.32
2022-08-20T14:50:05.409Z,5.13
2022-08-20T14:52:36.372Z,4.82
2022-08-20T14:55:08.817Z,5.30
2022-08-20T14:57:35.460Z,4.50
2022-08-20T15:00:02.099Z,5.15
2022-08-20T15:02:28.675Z,4.97
2022-08-20T15:04:55.736Z,5.78
2022-08-20T15:07:26.178Z,5.78
2022-08-20T15:09:54.389Z,5.70
2022-08-20T15:12:21.497Z,5.60
2022-08-20T15:14:48.232Z,6.15
2022-08-20T15:17:27.873Z,5.80
2022-08-20T15:19:54.936Z,5.13
2022-08-20T15:22:22.799Z,4.90
2022-08-20T15:24:50.125Z,5.00
2022-08-20T15:27:23.851Z,5.05
2022-08-20T15:29:53.521Z,5.65
2022-08-20T15:32:21.101Z,5.03
2022-08-20T15:34:48.700Z,5.40
2022-08-20T15:37:19.747Z,5.35
2022-08-20T15:39:47.022Z,5.72
2022-08-20T15:42:14.097Z,6.22
2022-08-20T15:44:42.091Z,6.30
2022-08-20T15:47:15.269Z,5.97
2022-08-20T15:49:43.094Z,7.63
2022-08-20T15:52:10.626Z,7.13
2022-08-20T15:54:38.305Z,7.63
2022-08-20T15:57:26.607Z,8.55
2022-08-20T16:00:13.390Z,6.47
2022-08-20T16:02:58.893Z,9.85
2022-08-20T16:05:31.636Z,9.07
2022-08-20T16:08:14.090Z,8.23
2022-08-20T16:10:40.570Z,8.50
2022-08-20T16:13:29.358Z,8.35
2022-08-20T16:15:59.505Z,8.80
2022-08-20T16:18:30.579Z,9.00
2022-08-20T16:21:01.798Z,8.15
2022-08-20T16:23:37.006Z,9.77
2022-08-20T16:26:13.288Z,8.85
2022-08-20T16:29:13.835Z,9.57
2022-08-20T16:31:53.478Z,9.02
2022-08-20T16:34:36.359Z,9.35
2022-08-20T16:37:21.106Z,9.63
2022-08-20T16:40:08.123Z,10.50
2022-08-20T16:42:38.715Z,9.23
2022-08-20T16:45:09.999Z,9.27
2022-08-20T16:47:38.485Z,10.10
2022-08-20T16:50:11.677Z,9.40
2022-08-20T16:52:42.150Z,9.95
2022-08-20T16:55:08.951Z,9.43
2022-08-20T16:57:35.551Z,8.95
2022-08-20T17:00:24.969Z,9.90
2022-08-20T17:02:55.956Z,9.30
2022-08-20T17:05:25.410Z,9.52
2022-08-20T17:07:58.530Z,9.35
2022-08-20T17:10:31.818Z,9.50
2022-08-20T17:13:03.638Z,9.57
2022-08-20T17:15:33.616Z,9.23
2022-08-20T17:18:23.200Z,8.82
2022-08-20T17:20:49.842Z,8.52
2022-08-20T17:23:19.020Z,7.65
2022-08-20T17:25:56.571Z,6.63
2022-08-20T17:28:23.363Z,7.45
2022-08-20T17:30:51.139Z,7.32
2022-08-20T17:33:39.261Z,7.10
2022-08-20T17:36:11.542Z,7.05
2022-08-20T17:38:46.115Z,7.07
2022-08-20T17:41:27.682Z,7.78
2022-08-20T17:44:01.773Z,7.63
2022-08-20T17:46:32.510Z,6.30
2022-08-20T17:49:02.188Z,7.53
2022-08-20T17:51:36.514Z,7.68
2022-08-20T17:54:13.139Z,4.07
2022-08-20T17:56:42.776Z,4.18
2022-08-20T17:59:24.098Z,3.92
2022-08-20T18:02:05.519Z,2.72
2022-08-20T18:04:32.240Z,2.83
2022-08-20T18:07:11.051Z,2.17
2022-08-20T18:10:01.952Z,1.83
2022-08-20T18:12:39.034Z,2.00
2022-08-20T18:15:08.376Z,1.70
2022-08-20T18:17:44.403Z,2.60
2022-08-20T18:20:11.277Z,2.20
2022-08-20T18:22:52.477Z,2.03
2022-08-20T18:25:37.050Z,2.03
2022-08-20T18:28:29.206Z,2.13
2022-08-20T18:31:00.525Z,1.80
2022-08-20T18:33:36.376Z,2.20
2022-08-20T18:36:13.305Z,1.65
2022-08-20T18:38:42.120Z,2.03
2022-08-20T18:41:25.856Z,2.40
2022-08-20T18:44:04.364Z,2.13
2022-08-20T18:46:31.406Z,2.20
2022-08-20T18:49:01.537Z,2.58
2022-08-20T18:51:49.263Z,2.25
2022-08-20T18:54:48.913Z,2.42
2022-08-20T18:57:25.739Z,2.10
2022-08-20T19:00:11.320Z,2.30
2022-08-20T19:02:59.401Z,2.17
2022-08-20T19:05:44.539Z,3.20
2022-08-20T19:08:20.206Z,2.40
2022-08-20T19:10:52.485Z,2.47
2022-08-20T19:13:43.258Z,2.17
2022-08-20T19:16:40.823Z,1.88
2022-08-20T19:19:16.591Z,2.85
2022-08-20T19:21:43.459Z,2.42
2022-08-20T19:24:14.094Z,2.08
2022-08-20T19:26:45.373Z,2.03
2022-08-20T19:29:15.832Z,2.50
2022-08-20T19:31:43.348Z,1.80
2022-08-20T19:34:19.863Z,1.23
2022-08-20T19:37:35.308Z,1.75
2022-08-20T19:39:57.089Z,2.17
2022-08-20T19:42:33.206Z,2.10
2022-08-20T19:45:06.692Z,1.88
2022-08-20T19:47:37.097Z,1.58
2022-08-20T19:50:29.849Z,1.73
2022-08-20T19:53:15.075Z,1.58
2022-08-20T19:55:42.305Z,1.33
2022-08-20T19:58:26.156Z,1.80
2022-08-20T20:00:55.184Z,1.48
2022-08-20T20:03:21.832Z,1.80
2022-08-20T20:05:54.382Z,1.83
2022-08-20T20:08:23.586Z,2.00
2022-08-20T20:10:54.203Z,1.52
2022-08-20T20:13:22.948Z,1.50
2022-08-20T20:15:53.874Z,1.98
2022-08-20T20:18:21.102Z,1.83
2022-08-20T20:20:57.804Z,1.63
2022-08-20T20:23:28.189Z,1.80
2022-08-20T20:26:18.031Z,1.85
2022-08-20T20:28:46.715Z,1.90
2022-08-20T20:31:20.417Z,1.95
2022-08-20T20:33:53.847Z,2.30
2022-08-20T20:36:40.856Z,1.90
2022-08-20T20:39:36.681Z,2.10
2022-08-20T20:42:07.001Z,2.13
2022-08-20T20:44:41.827Z,2.33
2022-08-20T20:47:23.116Z,1.77
2022-08-20T20:49:56.311Z,2.10
2022-08-20T20:52:30.327Z,1.50
2022-08-20T20:55:06.339Z,1.48
2022-08-20T20:57:38.394Z,1.80
2022-08-20T21:00:13.744Z,2.15
2022-08-20T21:02:41.112Z,2.00
2022-08-20T21:05:08.091Z,1.90
2022-08-20T21:07:34.641Z,1.88
2022-08-20T21:10:01.233Z,2.05
2022-08-20T21:12:27.892Z,1.70
2022-08-20T21:14:54.484Z,1.95
2022-08-20T21:17:22.705Z,1.73
2022-08-20T21:19:51.144Z,2.60
2022-08-20T21:22:19.302Z,1.75
2022-08-20T21:24:48.477Z,2.20
2022-08-20T21:27:15.842Z,1.95
2022-08-20T21:29:42.511Z,1.77
2022-08-20T21:32:09.439Z,1.77
2022-08-20T21:34:39.430Z,1.65
2022-08-20T21:37:06.028Z,2.33
2022-08-20T21:39:32.665Z,2.60
2022-08-20T21:42:02.511Z,2.28
2022-08-20T21:44:31.683Z,2.30
2022-08-20T21:47:00.041Z,1.85
2022-08-20T21:49:28.618Z,2.33
2022-08-20T21:51:55.779Z,1.88
2022-08-20T21:54:24.225Z,1.92
2022-08-20T21:56:56.039Z,1.83
2022-08-20T21:59:24.176Z,1.67
2022-08-20T22:01:51.849Z,1.70
2022-08-20T22:04:19.612Z,1.90
2022-08-20T22:06:46.945Z,1.70
2022-08-20T22:09:14.694Z,1.27
2022-08-20T22:11:41.406Z,1.55
2022-08-20T22:14:09.681Z,2.15
2022-08-20T22:16:36.463Z,1.95
2022-08-20T22:19:03.257Z,2.15
2022-08-20T22:21:32.429Z,2.05
2022-08-20T22:24:01.614Z,1.67
2022-08-20T22:26:28.781Z,1.83
2022-08-20T22:28:56.027Z,2.00
2022-08-20T22:31:27.469Z,1.98
2022-08-20T22:33:54.717Z,1.95
2022-08-20T22:36:21.336Z,1.98
2022-08-20T22:38:54.656Z,1.80
2022-08-20T22:41:22.622Z,1.83
2022-08-20T22:43:56.632Z,2.10
2022-08-20T22:46:26.930Z,2.33
2022-08-20T22:48:54.219Z,2.08
2022-08-20T22:51:26.839Z,1.80
2022-08-20T22:53:53.535Z,1.67
2022-08-20T22:56:22.005Z,2.42
2022-08-20T22:58:50.273Z,1.92
2022-08-20T23:01:17.552Z,2.05
2022-08-20T23:03:44.189Z,2.20
2022-08-20T23:06:12.332Z,2.25
2022-08-20T23:08:40.011Z,2.15
2022-08-20T23:11:06.672Z,2.42
2022-08-20T23:13:34.648Z,2.45
2022-08-20T23:16:01.470Z,2.55
2022-08-20T23:18:28.394Z,2.20
2022-08-20T23:20:56.897Z,2.40
2022-08-20T23:23:25.675Z,2.72
2022-08-20T23:25:53.542Z,2.55
2022-08-20T23:28:22.296Z,2.53
2022-08-20T23:30:49.604Z,2.95
2022-08-20T23:33:16.836Z,2.88
2022-08-20T23:35:44.640Z,2.40
2022-08-20T23:38:11.641Z,2.17
2022-08-20T23:40:38.587Z,2.33
2022-08-20T23:43:05.676Z,2.22
2022-08-20T23:45:33.183Z,2.03
2022-08-20T23:47:59.823Z,2.28
2022-08-20T23:50:28.934Z,2.40
2022-08-20T23:52:57.414Z,1.93
2022-08-20T23:55:24.288Z,2.17
2022-08-20T23:57:52.003Z,1.98
